METAR AND TAF INFORMATION
METAR FOR EDDB
ADDS - METARS form results

(0136 UTC 18 June 2019)
Data provider http://aviationweather.gov/metar/data/
 
METAR text: EDDB 180120Z 07005KT CAVOK 16/12 Q1019 NOSIG
Conditions at: EDDB (BERLIN/SCHONEFEL, DE) observed 0120 UTC 18 June 2019
Temperature: 16.0°C (61°F)
Dewpoint: 12.0°C (54°F) [RH = 77%]
Pressure (altimeter): 30.09 inches Hg (1019.0 mb)
Winds: from the ENE (70 degrees) at 6 MPH (5 knots; 2.6 m/s)
Visibility: 6 or more miles (10+ km)
Ceiling: ceiling and visibility are OK
Clouds: unknown
Weather: no significant weather observed at this time

METAR text: EDDB 180050Z 08007KT CAVOK 17/13 Q1019 NOSIG
Conditions at: EDDB (BERLIN/SCHONEFEL, DE) observed 0050 UTC 18 June 2019
Temperature: 17.0°C (63°F)
Dewpoint: 13.0°C (55°F) [RH = 77%]
Pressure (altimeter): 30.09 inches Hg (1019.0 mb)
Winds: from the E (80 degrees) at 8 MPH (7 knots; 3.6 m/s)
Visibility: 6 or more miles (10+ km)
Ceiling: ceiling and visibility are OK
Clouds: unknown
Weather: no significant weather observed at this time

Forecast for: EDDB (BERLIN/SCHONEFEL, DE)
Text: TAF EDDB 172300Z 1800/1824 08004KT CAVOK
Forecast period: 0000 to 0500 UTC 18 June 2019
Forecast type: FROM: standard forecast or significant change
Winds: from the E (80 degrees) at 5 MPH (4 knots; 2.1 m/s)
Visibility: 6 or more miles 10+ km)
Ceiling: unknown
Clouds: missing
Weather: NSW  (no significant weather)
Text: BECMG 1805/1807 12009KT
Forecast period: 0500 UTC 18 June 2019 to 0000 UTC 19 June 2019
Forecast type: BECOMING: Conditions expected to become as follows by 0700 UTC 18 June 2019
Winds: from the ESE (120 degrees) at 10 MPH (9 knots; 4.6 m/s)
Visibility: 6 or more miles 10+ km)
Ceiling: unknown
Clouds: missing
Weather: NSW  (no significant weather)

 AIRPORT MAP

 RUNWAY INFORMATION
Runway 07L Runway length 8891 ft Runway width 148 ft
Runway elevation 148 ft Runway displaced threshold 0 ft Runway heading 69
Runway 25R Runway length 8891 ft Runway width 148 ft
Runway elevation 145 ft Runway displaced threshold 0 ft Runway heading 249
Runway 07R Runway length 9843 ft Runway width 148 ft
Runway elevation 146 ft Runway displaced threshold 0 ft Runway heading 69
Runway 25L Runway length 9843 ft Runway width 148 ft
Runway elevation 155 ft Runway displaced threshold 0 ft Runway heading 249

 AIRPORT FREQUENCIES
Type AFIS Name BERLIN INF Frequency 132.65 MHZ
Type APP Name BERLIN ARR Frequency 119.625 MHZ
Type ATIS Name ATIS Frequency 124.95 MHZ
Type DEP Name BERLIN DEP Frequency 120.625 MHZ
Type DIR Name BERLIN DIR Frequency 136.1 MHZ
Type GND Name GND Frequency 121.6 MHZ
Type INFO Name INFO Frequency 122.7 MHZ
Type TWR Name TWR Frequency 120.025 MHZ

 AIRPORT NEAR NAVIGATION AIDS
Type DME Name Schonefeld Frequency 114400 KHZ
Type NDB Name Schonefeld Frequency 362 KHZ



Powered by Virtual Airlines Manager [v2.6.2]